Aérodrome :
LOGIN :

S'inscrire | Disclaimer

   EN    FR    IT 

 










Légende :    VFR   VFR Marginal   IFR   IFR Intensif   IFR Très Intensif
Visi : 
Plafond : 
>= 8 km
>= 3000ft
5 à 8 km
1000 à 3000 ft
1500m à 5 km
500 à 1000 ft
800 à 1500m
200 à 500 ft
< 800m
< 200 ft
Symboles :   Orages  Brouillard  Fortes neiges  Fortes précipitations  Vent > 20 kt
SIGMETs :   Divers  Orages  Givrage  Turbulence  Onde Orograph.  Cendres Volcan.







- Altitude de l'aérodrome : 200 ft


EBBL - Klein Brogel AB

DERNIER METAR :
  • 231625Z AUTO 22007KT 9999 OVC052/// 13/10 Q1020 BLU

METARs EXPIRÉS :
  • 231555Z AUTO 23006KT 9999 BKN052/// 13/10 Q1020 BLU
  • 231525Z 24007KT 9999 FEW021 SCT050 13/10 Q1020 BLU BLU TEMPO WHT
  • 231455Z 24010KT 9999 FEW021 SCT050 13/10 Q1020 BLU BLU TEMPO WHT
  • 231425Z 25011KT 9999 FEW022 SCT050 14/10 Q1020 BLU BLU TEMPO WHT
  • 231355Z 25010KT 9999 FEW024 SCT050 14/10 Q1019 BLU BLU TEMPO WHT

TAF TAF EBBL
Valide du 23 à 13h jusqu'au 23 à 22h UTC


231141Z 2313/2322 25015KT 9999 BKN030
BECMG 2314/2316 6000 SCT010 BKN015
TEMPO 2316/2322 3000 RA DZ BKN008 BKN010
Pas de NOTAMs connus pour ce terrain.



MET'MAP, la Météo Aéronautique d'un coup d'oeil ! - Copyright ORBIFLY Décembre 2007 - Disclaimer

ORBIFLY MET'MAP TEAM :

Programmation & Développement : Alexandra Zaïnal
Conception & Développement : Baudouin d'Aumeries
Co-Programmation & Développement : Marc-Olivier Méhu
Soutien technique & logistique : Manuel Goepfert

Contact : metmap@orbifly.com




SOURCES & CREDITS :

   NOAA